CheckWX is a tool to help pilots better visualize weather data.  It is not intended as a substitute for an official pre-flight weather briefing.

02:22:54 UTC

CYYD TAF
Smithers Airport
Smithers, Canada
TAF CYYD 190038Z 1901/1906 20005KT P6SM BKN230 RMK NXT FCST WILL BE ISSUED AT 191345Z

Mar-19@
01:00 UTC

Mar-19 @ 01:00 UTC

Mar-19@
06:00 UTC

Mar-19 @ 06:00 UTC

TAF CYYD 190038Z 1901/1906 20005KT P6SM BKN230 RMK NXT FCST WILL BE ISSUED AT 191345Z
Wind
  • 200° at 5 KTS
Cloud Levels
  • Broken at 23,000' AGL